Church Stretton, United Kingdom
Current Conditions -  °F | °C
As of 6:50 AM on Friday 31 Oct 2014 (Local Time) from EGOS Reporting Station
Haze Haze  
Wind Chill: 59°   Ceiling: 22000
Heat Index: 59°   Visibility: 4mi
Dew Point: 57°   Wind: 10mph
Humidity: 94%   Direction: 150°SSE
Pressure: 29.91"   Gusts: NA
Location:  52.54°N, 2.8°W
Report Text: EGOS 310650Z 15009KT 6000 HZ FEW012 BKN220 15/14 Q1013 WHT NOSIG
Loading
Personal Weather Stations






























Interactive Weather Map
Tropical Storm Tracking
New forecast layout! Learn more

10-Day Weather Forecast

Advertisements
Track Severe Weather on mobile